Time,TemperatureF,DewpointF,PressureIn,WindDirection,WindDirectionDegrees,WindSpeedMPH,WindSpeedGustMPH,Humidity,HourlyPrecipIn,Conditions,Clouds,dailyrainin,SoftwareType,DateUTC
2013-08-16 00:04:00,53.0,51.0,30.07,West,276,0.0,0.0,92,0.00,,,0.00,weatherlink.com 1.10,2013-08-16 04:04:00,
2013-08-16 00:19:00,52.7,51.0,30.07,West,276,0.0,0.0,92,0.00,,,0.00,weatherlink.com 1.10,2013-08-16 04:19:00,
2013-08-16 00:34:00,52.2,50.0,30.07,West,276,0.0,0.0,93,0.00,,,0.00,weatherlink.com 1.10,2013-08-16 04:34:00,
2013-08-16 00:49:00,51.8,50.0,30.07,West,276,0.0,0.0,93,0.00,,,0.00,weatherlink.com 1.10,2013-08-16 04:49:00,
2013-08-16 01:05:00,51.5,50.0,30.07,West,276,0.0,0.0,93,0.00,,,0.00,weatherlink.com 1.10,2013-08-16 05:05:00,
2013-08-16 01:20:00,51.5,50.0,30.07,West,276,0.0,0.0,93,0.00,,,0.00,weatherlink.com 1.10,2013-08-16 05:20:00,
2013-08-16 01:35:00,50.5,49.0,30.07,West,276,0.0,1.0,93,0.00,,,0.00,weatherlink.com 1.10,2013-08-16 05:35:00,
2013-08-16 01:50:00,50.4,49.0,30.07,West,276,0.0,0.0,93,0.00,,,0.00,weatherlink.com 1.10,2013-08-16 05:50:00,
2013-08-16 02:05:00,50.7,49.0,30.07,West,273,0.0,0.0,93,0.00,,,0.00,weatherlink.com 1.10,2013-08-16 06:05:00,
2013-08-16 02:20:00,50.8,49.0,30.07,West,274,0.0,0.0,93,0.00,,,0.00,weatherlink.com 1.10,2013-08-16 06:20:00,
2013-08-16 02:35:00,50.1,48.0,30.07,West,274,0.0,0.0,93,0.00,,,0.00,weatherlink.com 1.10,2013-08-16 06:35:00,
2013-08-16 02:50:00,49.8,48.0,30.07,West,274,0.0,0.0,93,0.00,,,0.00,weatherlink.com 1.10,2013-08-16 06:50:00,
2013-08-16 03:05:00,50.1,48.0,30.07,West,274,0.0,0.0,93,0.00,,,0.00,weatherlink.com 1.10,2013-08-16 07:05:00,
2013-08-16 03:20:00,49.7,48.0,30.07,West,274,0.0,0.0,93,0.00,,,0.00,weatherlink.com 1.10,2013-08-16 07:20:00,
2013-08-16 03:35:00,49.5,48.0,30.07,West,274,0.0,0.0,93,0.00,,,0.00,weatherlink.com 1.10,2013-08-16 07:35:00,
2013-08-16 03:50:00,49.4,48.0,30.07,West,274,0.0,0.0,93,0.00,,,0.00,weatherlink.com 1.10,2013-08-16 07:50:00,
2013-08-16 04:05:00,49.9,48.0,30.07,West,274,0.0,0.0,94,0.00,,,0.00,weatherlink.com 1.10,2013-08-16 08:05:00,
2013-08-16 04:20:00,49.8,48.0,30.08,West,274,0.0,1.0,94,0.00,,,0.00,weatherlink.com 1.10,2013-08-16 08:20:00,
2013-08-16 04:35:00,49.1,47.0,30.08,West,273,0.0,0.0,93,0.00,,,0.00,weatherlink.com 1.10,2013-08-16 08:35:00,
2013-08-16 04:50:00,48.9,47.0,30.09,West,274,0.0,1.0,94,0.00,,,0.00,weatherlink.com 1.10,2013-08-16 08:50:00,
2013-08-16 05:05:00,48.1,46.0,30.08,West,274,0.0,0.0,93,0.00,,,0.00,weatherlink.com 1.10,2013-08-16 09:05:00,
2013-08-16 05:20:00,47.2,45.0,30.09,West,274,0.0,0.0,93,0.00,,,0.00,weatherlink.com 1.10,2013-08-16 09:20:00,
2013-08-16 05:35:00,47.0,45.0,30.09,West,274,0.0,0.0,94,0.00,,,0.00,weatherlink.com 1.10,2013-08-16 09:35:00,
2013-08-16 05:50:00,46.9,45.0,30.09,West,274,0.0,0.0,94,0.00,,,0.00,weatherlink.com 1.10,2013-08-16 09:50:00,
2013-08-16 06:05:00,47.1,46.0,30.10,West,277,1.0,1.0,94,0.00,,,0.00,weatherlink.com 1.10,2013-08-16 10:05:00,
2013-08-16 06:20:00,47.4,46.0,30.10,West,274,0.0,1.0,94,0.00,,,0.00,weatherlink.com 1.10,2013-08-16 10:20:00,
2013-08-16 06:35:00,47.6,46.0,30.11,West,269,0.0,1.0,94,0.00,,,0.00,weatherlink.com 1.10,2013-08-16 10:35:00,
2013-08-16 06:50:00,48.0,46.0,30.11,West,267,0.0,0.0,94,0.00,,,0.00,weatherlink.com 1.10,2013-08-16 10:50:00,
2013-08-16 07:05:00,48.8,47.0,30.11,West,269,0.0,1.0,94,0.00,,,0.00,weatherlink.com 1.10,2013-08-16 11:05:00,
2013-08-16 07:20:00,49.4,48.0,30.11,West,273,0.0,1.0,94,0.00,,,0.00,weatherlink.com 1.10,2013-08-16 11:20:00,
2013-08-16 07:35:00,50.4,49.0,30.11,West,278,0.0,1.0,94,0.00,,,0.00,weatherlink.com 1.10,2013-08-16 11:35:00,
2013-08-16 07:50:00,51.2,50.0,30.11,West,276,0.0,0.0,94,0.00,,,0.00,weatherlink.com 1.10,2013-08-16 11:50:00,
2013-08-16 08:05:00,52.8,51.0,30.12,West,276,0.0,0.0,94,0.00,,,0.00,weatherlink.com 1.10,2013-08-16 12:05:00,
2013-08-16 08:20:00,55.1,53.0,30.12,West,274,0.0,1.0,93,0.00,,,0.00,weatherlink.com 1.10,2013-08-16 12:20:00,
2013-08-16 08:35:00,56.7,55.0,30.12,WNW,297,3.0,3.0,92,0.00,,,0.00,weatherlink.com 1.10,2013-08-16 12:35:00,
2013-08-16 08:50:00,58.2,56.0,30.13,WNW,284,2.0,4.0,92,0.00,,,0.00,weatherlink.com 1.10,2013-08-16 12:50:00,
2013-08-16 09:05:00,59.9,56.0,30.13,North,350,1.0,4.0,88,0.00,,,0.00,weatherlink.com 1.10,2013-08-16 13:05:00,
2013-08-16 09:20:00,60.9,56.0,30.13,WNW,285,1.0,4.0,85,0.00,,,0.00,weatherlink.com 1.10,2013-08-16 13:20:00,
2013-08-16 09:36:00,62.2,57.0,30.14,NW,308,1.0,2.0,83,0.00,,,0.00,weatherlink.com 1.10,2013-08-16 13:36:00,
2013-08-16 09:51:00,64.2,58.0,30.13,WNW,294,2.0,2.0,79,0.00,,,0.00,weatherlink.com 1.10,2013-08-16 13:51:00,
2013-08-16 10:06:00,65.5,58.0,30.13,WNW,302,2.0,2.0,77,0.00,,,0.00,weatherlink.com 1.10,2013-08-16 14:06:00,
2013-08-16 10:21:00,66.8,59.0,30.13,NW,316,3.0,3.0,77,0.00,,,0.00,weatherlink.com 1.10,2013-08-16 14:21:00,
2013-08-16 10:36:00,67.4,58.0,30.13,WNW,288,3.0,5.0,73,0.00,,,0.00,weatherlink.com 1.10,2013-08-16 14:36:00,
2013-08-16 10:51:00,68.2,58.0,30.14,NW,321,2.0,4.0,70,0.00,,,0.00,weatherlink.com 1.10,2013-08-16 14:51:00,
2013-08-16 11:06:00,69.4,58.0,30.14,NNE,12,1.0,4.0,68,0.00,,,0.00,weatherlink.com 1.10,2013-08-16 15:06:00,
2013-08-16 11:21:00,70.0,58.0,30.14,WSW,239,1.0,6.0,65,0.00,,,0.00,weatherlink.com 1.10,2013-08-16 15:21:00,
2013-08-16 11:36:00,71.2,57.0,30.14,East,79,1.0,4.0,61,0.00,,,0.00,weatherlink.com 1.10,2013-08-16 15:36:00,
2013-08-16 11:51:00,71.9,56.0,30.14,West,280,4.0,5.0,58,0.00,,,0.00,weatherlink.com 1.10,2013-08-16 15:51:00,
2013-08-16 12:06:00,73.0,57.0,30.14,West,274,2.0,5.0,57,0.00,,,0.00,weatherlink.com 1.10,2013-08-16 16:06:00,
2013-08-16 12:21:00,73.5,55.0,30.14,SSW,204,2.0,5.0,53,0.00,,,0.00,weatherlink.com 1.10,2013-08-16 16:21:00,
2013-08-16 12:36:00,74.2,55.0,30.14,WNW,283,2.0,6.0,52,0.00,,,0.00,weatherlink.com 1.10,2013-08-16 16:36:00,
2013-08-16 12:51:00,74.4,55.0,30.14,WSW,250,1.0,6.0,51,0.00,,,0.00,weatherlink.com 1.10,2013-08-16 16:51:00,
2013-08-16 13:06:00,75.6,59.0,30.14,South,187,3.0,6.0,56,0.00,,,0.00,weatherlink.com 1.10,2013-08-16 17:06:00,
2013-08-16 13:21:00,74.6,60.0,30.14,WSW,256,7.0,8.0,60,0.00,,,0.00,weatherlink.com 1.10,2013-08-16 17:21:00,
2013-08-16 13:36:00,75.0,58.0,30.13,SE,139,2.0,8.0,55,0.00,,,0.00,weatherlink.com 1.10,2013-08-16 17:36:00,
2013-08-16 13:51:00,75.5,58.0,30.13,South,191,4.0,8.0,54,0.00,,,0.00,weatherlink.com 1.10,2013-08-16 17:51:00,
2013-08-16 14:06:00,76.5,57.0,30.13,SW,217,5.0,9.0,52,0.00,,,0.00,weatherlink.com 1.10,2013-08-16 18:06:00,
2013-08-16 14:21:00,76.2,57.0,30.13,ENE,63,1.0,9.0,51,0.00,,,0.00,weatherlink.com 1.10,2013-08-16 18:21:00,
2013-08-16 14:36:00,76.0,55.0,30.13,South,179,5.0,9.0,49,0.00,,,0.00,weatherlink.com 1.10,2013-08-16 18:36:00,
2013-08-16 14:51:00,76.1,54.0,30.13,ESE,120,6.0,10.0,46,0.00,,,0.00,weatherlink.com 1.10,2013-08-16 18:51:00,
2013-08-16 15:06:00,75.3,55.0,30.13,West,259,3.0,8.0,49,0.00,,,0.00,weatherlink.com 1.10,2013-08-16 19:06:00,
2013-08-16 15:21:00,75.1,55.0,30.13,SE,135,5.0,9.0,50,0.00,,,0.00,weatherlink.com 1.10,2013-08-16 19:21:00,
2013-08-16 15:36:00,75.5,54.0,30.13,South,176,6.0,8.0,47,0.00,,,0.00,weatherlink.com 1.10,2013-08-16 19:36:00,
2013-08-16 15:51:00,75.9,55.0,30.13,SW,225,4.0,8.0,49,0.00,,,0.00,weatherlink.com 1.10,2013-08-16 19:51:00,
2013-08-16 16:06:00,75.7,53.0,30.13,SSE,158,4.0,8.0,46,0.00,,,0.00,weatherlink.com 1.10,2013-08-16 20:06:00,
2013-08-16 16:21:00,75.9,54.0,30.12,SSW,200,4.0,7.0,46,0.00,,,0.00,weatherlink.com 1.10,2013-08-16 20:21:00,
2013-08-16 16:36:00,76.0,52.0,30.13,SE,146,3.0,7.0,44,0.00,,,0.00,weatherlink.com 1.10,2013-08-16 20:36:00,
2013-08-16 16:51:00,75.8,52.0,30.13,SSE,149,6.0,7.0,44,0.00,,,0.00,weatherlink.com 1.10,2013-08-16 20:51:00,
2013-08-16 17:06:00,75.6,52.0,30.13,WSW,256,6.0,7.0,44,0.00,,,0.00,weatherlink.com 1.10,2013-08-16 21:06:00,
2013-08-16 17:21:00,75.3,53.0,30.13,SW,215,4.0,6.0,46,0.00,,,0.00,weatherlink.com 1.10,2013-08-16 21:21:00,
2013-08-16 17:37:00,75.6,53.0,30.13,SE,136,2.0,7.0,46,0.00,,,0.00,weatherlink.com 1.10,2013-08-16 21:37:00,
2013-08-16 17:52:00,75.1,53.0,30.13,SSE,166,4.0,8.0,47,0.00,,,0.00,weatherlink.com 1.10,2013-08-16 21:52:00,
2013-08-16 18:07:00,74.8,53.0,30.13,SSE,162,1.0,6.0,46,0.00,,,0.00,weatherlink.com 1.10,2013-08-16 22:07:00,
2013-08-16 18:22:00,74.8,53.0,30.13,SE,145,2.0,5.0,47,0.00,,,0.00,weatherlink.com 1.10,2013-08-16 22:22:00,
2013-08-16 18:37:00,74.1,53.0,30.14,SW,217,1.0,6.0,48,0.00,,,0.00,weatherlink.com 1.10,2013-08-16 22:37:00,
2013-08-16 18:52:00,74.1,54.0,30.14,SSE,158,2.0,4.0,50,0.00,,,0.00,weatherlink.com 1.10,2013-08-16 22:52:00,
2013-08-16 19:07:00,73.4,54.0,30.14,SW,235,4.0,4.0,51,0.00,,,0.00,weatherlink.com 1.10,2013-08-16 23:07:00,
2013-08-16 19:22:00,72.4,53.0,30.14,SW,232,0.0,6.0,51,0.00,,,0.00,weatherlink.com 1.10,2013-08-16 23:22:00,
2013-08-16 19:37:00,72.0,54.0,30.14,SW,224,0.0,3.0,53,0.00,,,0.00,weatherlink.com 1.10,2013-08-16 23:37:00,
2013-08-16 19:52:00,71.0,54.0,30.14,SW,215,0.0,2.0,56,0.00,,,0.00,weatherlink.com 1.10,2013-08-16 23:52:00,
2013-08-16 20:07:00,70.3,56.0,30.14,South,176,0.0,1.0,61,0.00,,,0.00,weatherlink.com 1.10,2013-08-17 00:07:00,
2013-08-16 20:22:00,67.4,56.0,30.14,South,176,0.0,0.0,68,0.00,,,0.00,weatherlink.com 1.10,2013-08-17 00:22:00,
2013-08-16 20:37:00,63.3,56.0,30.15,South,176,0.0,0.0,77,0.00,,,0.00,weatherlink.com 1.10,2013-08-17 00:37:00,
2013-08-16 20:52:00,60.7,56.0,30.14,South,176,0.0,0.0,83,0.00,,,0.00,weatherlink.com 1.10,2013-08-17 00:52:00,
2013-08-16 21:07:00,59.0,55.0,30.15,South,176,0.0,0.0,87,0.00,,,0.00,weatherlink.com 1.10,2013-08-17 01:07:00,
2013-08-16 21:22:00,57.6,54.0,30.15,South,176,0.0,0.0,89,0.00,,,0.00,weatherlink.com 1.10,2013-08-17 01:22:00,
2013-08-16 21:37:00,56.6,54.0,30.16,South,176,0.0,0.0,90,0.00,,,0.00,weatherlink.com 1.10,2013-08-17 01:37:00,
2013-08-16 21:52:00,56.7,54.0,30.16,South,188,0.0,0.0,91,0.00,,,0.00,weatherlink.com 1.10,2013-08-17 01:52:00,
2013-08-16 22:07:00,55.7,53.0,30.16,South,188,0.0,0.0,91,0.00,,,0.00,weatherlink.com 1.10,2013-08-17 02:07:00,
2013-08-16 22:22:00,54.6,52.0,30.16,South,188,0.0,0.0,91,0.00,,,0.00,weatherlink.com 1.10,2013-08-17 02:22:00,
2013-08-16 22:37:00,53.7,52.0,30.16,South,188,0.0,0.0,92,0.00,,,0.00,weatherlink.com 1.10,2013-08-17 02:37:00,
2013-08-16 22:52:00,53.4,51.0,30.16,South,188,0.0,0.0,92,0.00,,,0.00,weatherlink.com 1.10,2013-08-17 02:52:00,
2013-08-16 23:07:00,53.4,51.0,30.16,South,188,0.0,0.0,92,0.00,,,0.00,weatherlink.com 1.10,2013-08-17 03:07:00,
2013-08-16 23:22:00,53.5,51.0,30.17,South,188,0.0,0.0,92,0.00,,,0.00,weatherlink.com 1.10,2013-08-17 03:22:00,
2013-08-16 23:37:00,53.6,51.0,30.17,South,188,0.0,0.0,92,0.00,,,0.00,weatherlink.com 1.10,2013-08-17 03:37:00,
2013-08-16 23:52:00,53.4,51.0,30.17,South,188,0.0,0.0,92,0.00,,,0.00,weatherlink.com 1.10,2013-08-17 03:52:00,